Flight Track Log - Related Links

Times and Time Zones

All times are in EDT time to prevent confusion due to time zone crossing. See the N319EE flight status page for this flight to view local times or setup timezone preferences in your user account.

Time Position Orientation Groundspeed Altitude Reporting Facility
EDT Latitude Longitude Course Direction KTS MPH feet Rate Location/Type
Wed 04:45:03 PM 43.1194 -77.7025 259° West 153 176 1,500  Level Cleveland Center
Wed 04:46:06 PM 43.1350 -77.7489 295° West 247 284 3,300 1,632 Climbing Cleveland Center
Wed 04:47:08 PM 43.1656 -77.7069 45° Northeast 185 213 4,900 1,742 Climbing Cleveland Center
Wed 04:48:10 PM 43.1769 -77.6367 77° East 185 213 6,900 1,707 Climbing Cleveland Center
Wed 04:49:11 PM 43.1914 -77.5639 75° East 192 221 8,400 1,561 Climbing Cleveland Center
Wed 04:50:13 PM 43.2061 -77.4822 76° East 213 245 10,100 1,694 Climbing Cleveland Center
Wed 04:51:15 PM 43.2236 -77.3803 77° East 224 258 11,900 1,452 Climbing Cleveland Center
Wed 04:52:17 PM 43.2392 -77.2928 76° East 234 269 13,100 1,220 Climbing Cleveland Center
Wed 04:53:18 PM 43.2572 -77.1961 76° East 253 291 14,400 1,366 Climbing Cleveland Center
Wed 04:54:20 PM 43.2739 -77.1006 76° East 257 296 15,900 1,403 Climbing Cleveland Center
Wed 04:55:22 PM 43.2867 -76.9944 81° East 257 296 17,300 1,220 Climbing Cleveland Center
Wed 04:56:23 PM 43.2942 -76.8944 84° East 259 298 18,400 1,073 Climbing Cleveland Center
Wed 04:57:25 PM 43.3072 -76.7947 80° East 262 302 19,500 968 Climbing Cleveland Center
Wed 04:58:27 PM 43.3186 -76.6958 81° East 262 302 20,400 732 Climbing Cleveland Center
Wed 04:59:28 PM 43.3325 -76.5956 79° East 264 304 21,000 293 Climbing Cleveland Center
Wed 05:00:30 PM 43.3483 -76.4847 79° East 293 337 21,000  Level Cleveland Center
Wed 05:01:32 PM 43.3617 -76.3672 81° East 306 352 21,000  Level Cleveland Center
Wed 05:02:33 PM 43.3781 -76.2278 81° East 307 353 21,000  Level Cleveland Center
Wed 05:03:35 PM 43.3889 -76.1075 83° East 314 361 21,000  Level Cleveland Center
Wed 05:04:36 PM 43.3997 -75.9883 83° East 314 361 21,000  Level Cleveland Center
Wed 05:05:38 PM 43.4094 -75.8683 84° East 315 362 21,000  Level Cleveland Center
Wed 05:06:40 PM 43.4158 -75.7472 86° East 316 364 21,000  Level Cleveland Center
Wed 05:07:41 PM 43.4233 -75.6269 85° East 316 364 21,000  Level Cleveland Center
Wed 05:08:43 PM 43.4319 -75.5067 84° East 316 364 21,000  Level Cleveland Center
Wed 05:09:44 PM 43.4403 -75.3847 85° East 316 364 21,000  Level Cleveland Center
Wed 05:10:46 PM 43.4492 -75.2608 84° East 316 364 21,000  Level Cleveland Center
Wed 05:12:09 PM 43.4606 -75.0942 85° East 317 365 21,000  Level Boston Center
Wed 05:13:10 PM 43.4697 -74.9719 84° East 320 368 21,000  Level Boston Center
Wed 05:14:11 PM 43.4969 -74.8336 75° East 318 366 21,000  Level Boston Center
Wed 05:15:14 PM 43.5186 -74.7161 76° East 316 364 21,000  Level Boston Center
Wed 05:16:15 PM 43.5392 -74.6003 76° East 316 364 21,000  Level Boston Center
Wed 05:17:15 PM 43.5608 -74.4850 75° East 314 361 21,000  Level Boston Center
Wed 05:18:17 PM 43.5822 -74.3706 75° East 314 361 21,000  Level Boston Center
Wed 05:19:18 PM 43.6031 -74.2547 76° East 313 360 21,000  Level Boston Center
Wed 05:20:22 PM 43.6247 -74.1417 75° East 312 359 21,000  Level Boston Center
Wed 05:21:22 PM 43.6486 -74.0050 76° East 310 357 21,000  Level Boston Center
Wed 05:22:23 PM 43.6697 -73.8914 76° East 309 356 21,000  Level Boston Center
Wed 05:23:27 PM 43.6900 -73.7767 76° East 308 354 21,000  Level Boston Center
Wed 05:24:28 PM 43.7103 -73.6611 76° East 309 356 21,000  Level Boston Center
Wed 05:25:29 PM 43.7308 -73.5453 76° East 310 357 21,000  Level Boston Center
Wed 05:26:30 PM 43.7511 -73.4281 76° East 311 358 21,000  Level Boston Center
Wed 05:27:31 PM 43.7717 -73.3125 76° East 311 358 21,000  Level Boston Center
Wed 05:28:35 PM 43.7947 -73.1744 77° East 309 356 21,000  Level Boston Center
Wed 05:29:35 PM 43.8147 -73.0631 76° East 306 352 21,000  Level Boston Center
Wed 05:30:38 PM 43.8306 -72.9617 78° East 303 349 21,000  Level Boston Center
Wed 05:31:39 PM 43.8514 -72.8439 76° East 312 359 21,000  Level Boston Center
Wed 05:32:40 PM 43.8756 -72.7022 77° East 312 359 21,000  Level Boston Center
Wed 05:33:40 PM 43.8947 -72.5856 77° East 312 359 21,000  Level Boston Center
Wed 05:34:44 PM 43.9136 -72.4672 77° East 312 359 21,000  Level Boston Center
Wed 05:35:45 PM 43.9331 -72.3483 77° East 313 360 21,000  Level Boston Center
Wed 05:36:46 PM 43.9536 -72.2281 77° East 316 364 21,000  Level Boston Center
Wed 05:37:47 PM 43.9731 -72.1072 77° East 318 366 21,000  Level Boston Center
Wed 05:39:52 PM 44.0128 -71.8603 77° East 318 366 21,000  Level Boston Center
Wed 05:40:53 PM 44.0308 -71.7419 78° East 317 365 21,000  Level Boston Center
Wed 05:41:53 PM 44.0492 -71.6206 78° East 318 366 21,000  Level Boston Center
Wed 05:42:55 PM 44.0678 -71.4953 78° East 325 374 21,000  Level Boston Center
Wed 05:43:58 PM 44.0872 -71.3497 79° East 322 371 21,000  Level Boston Center
Wed 05:44:59 PM 44.1042 -71.2256 79° East 323 372 21,000  Level Boston Center
Wed 05:46:01 PM 44.1211 -71.1031 79° East 323 372 21,000 -246 Level Boston Center
Wed 05:47:01 PM 44.1386 -70.9808 79° East 322 371 20,500 -1,230 Descending Boston Center
Wed 05:48:03 PM 44.1567 -70.8353 80° East 348 400 18,500 -1,820 Descending Boston Center
Wed 05:49:03 PM 44.1761 -70.6906 79° East 374 430 16,800 -1,610 Descending Boston Center
Wed 05:50:06 PM 44.1961 -70.5436 79° East 360 414 15,200 -1,403 Descending Boston Center
Wed 05:51:07 PM 44.2139 -70.4114 79° East 351 404 13,900 -1,289 Descending Boston Center
Wed 05:52:07 PM 44.2297 -70.2853 80° East 334 384 12,600 -1,597 Descending Boston Center
Wed 05:53:11 PM 44.2453 -70.1625 80° East 325 374 10,600 -2,226 Descending Boston Center
Wed 05:54:11 PM 44.2581 -70.0394 82° East 299 344 8,000 -2,177 Descending Boston Center
Wed 05:55:15 PM 44.2536 -69.9439 94° East 287 330 6,100 -1,781 Descending Boston Center

Login

Don't have an account? Register now (free) for customized features, flight alerts, and more!